sensor_id;sensor_type;location;lat;lon;timestamp;temperature;humidity
10662;DHT22;5379;51.034;7.006;2023-05-16T04:31:09;13.00;99.90
10662;DHT22;5379;51.034;7.006;2023-05-16T04:33:36;13.10;99.90
10662;DHT22;5379;51.034;7.006;2023-05-16T04:36:03;12.70;99.90
10662;DHT22;5379;51.034;7.006;2023-05-16T04:38:30;12.80;99.90
10662;DHT22;5379;51.034;7.006;2023-05-16T04:40:57;12.70;99.90
10662;DHT22;5379;51.034;7.006;2023-05-16T04:43:25;12.70;99.90
10662;DHT22;5379;51.034;7.006;2023-05-16T04:45:52;12.60;99.90
10662;DHT22;5379;51.034;7.006;2023-05-16T04:48:20;12.60;99.90
10662;DHT22;5379;51.034;7.006;2023-05-16T04:50:47;13.00;99.90
10662;DHT22;5379;51.034;7.006;2023-05-16T04:53:14;12.80;99.90
10662;DHT22;5379;51.034;7.006;2023-05-16T04:55:41;13.00;99.90
10662;DHT22;5379;51.034;7.006;2023-05-16T04:58:08;12.80;99.90
10662;DHT22;5379;51.034;7.006;2023-05-16T05:00:35;12.70;99.90
10662;DHT22;5379;51.034;7.006;2023-05-16T05:03:03;12.80;99.90
10662;DHT22;5379;51.034;7.006;2023-05-16T05:05:31;12.60;99.90
10662;DHT22;5379;51.034;7.006;2023-05-16T05:07:58;12.90;99.90
10662;DHT22;5379;51.034;7.006;2023-05-16T05:10:26;13.00;99.90
10662;DHT22;5379;51.034;7.006;2023-05-16T05:12:53;13.00;99.90
10662;DHT22;5379;51.034;7.006;2023-05-16T05:15:20;13.10;99.90
10662;DHT22;5379;51.034;7.006;2023-05-16T05:17:47;12.70;99.90
10662;DHT22;5379;51.034;7.006;2023-05-16T05:20:14;12.70;99.90
10662;DHT22;5379;51.034;7.006;2023-05-16T05:22:42;12.40;99.90
10662;DHT22;5379;51.034;7.006;2023-05-16T05:25:09;12.30;99.90
10662;DHT22;5379;51.034;7.006;2023-05-16T05:27:37;12.70;99.90
10662;DHT22;5379;51.034;7.006;2023-05-16T05:30:05;12.80;99.90
10662;DHT22;5379;51.034;7.006;2023-05-16T05:32:32;12.70;99.90
10662;DHT22;5379;51.034;7.006;2023-05-16T05:34:59;12.80;99.90
10662;DHT22;5379;51.034;7.006;2023-05-16T05:37:26;12.90;99.90
10662;DHT22;5379;51.034;7.006;2023-05-16T05:39:54;13.00;99.90
10662;DHT22;5379;51.034;7.006;2023-05-16T05:42:21;12.90;99.90
10662;DHT22;5379;51.034;7.006;2023-05-16T05:44:48;12.90;99.90
10662;DHT22;5379;51.034;7.006;2023-05-16T05:47:16;12.90;99.90
10662;DHT22;5379;51.034;7.006;2023-05-16T05:49:43;12.90;99.90
10662;DHT22;5379;51.034;7.006;2023-05-16T05:52:10;12.80;99.90
10662;DHT22;5379;51.034;7.006;2023-05-16T05:54:37;12.80;99.90
10662;DHT22;5379;51.034;7.006;2023-05-16T05:57:05;12.60;99.90
10662;DHT22;5379;51.034;7.006;2023-05-16T05:59:32;12.80;99.90
10662;DHT22;5379;51.034;7.006;2023-05-16T06:01:59;12.70;99.90
10662;DHT22;5379;51.034;7.006;2023-05-16T06:04:26;12.70;99.90
10662;DHT22;5379;51.034;7.006;2023-05-16T06:06:53;12.70;99.90
10662;DHT22;5379;51.034;7.006;2023-05-16T06:09:21;12.70;99.90
10662;DHT22;5379;51.034;7.006;2023-05-16T06:11:48;13.00;99.90
10662;DHT22;5379;51.034;7.006;2023-05-16T06:14:17;12.90;99.90
10662;DHT22;5379;51.034;7.006;2023-05-16T06:16:44;12.90;99.90
10662;DHT22;5379;51.034;7.006;2023-05-16T06:19:11;13.00;99.90
10662;DHT22;5379;51.034;7.006;2023-05-16T06:21:40;13.00;99.90
10662;DHT22;5379;51.034;7.006;2023-05-16T06:24:08;13.00;99.90
10662;DHT22;5379;51.034;7.006;2023-05-16T06:26:35;13.30;99.90
10662;DHT22;5379;51.034;7.006;2023-05-16T06:29:02;13.40;99.90
10662;DHT22;5379;51.034;7.006;2023-05-16T06:31:30;13.30;99.90
10662;DHT22;5379;51.034;7.006;2023-05-16T06:33:57;13.10;99.90
10662;DHT22;5379;51.034;7.006;2023-05-16T06:36:24;13.40;99.90
10662;DHT22;5379;51.034;7.006;2023-05-16T06:38:51;13.40;99.90
10662;DHT22;5379;51.034;7.006;2023-05-16T06:41:18;13.70;99.90
10662;DHT22;5379;51.034;7.006;2023-05-16T06:43:46;13.90;99.90
10662;DHT22;5379;51.034;7.006;2023-05-16T06:46:13;14.20;99.90
10662;DHT22;5379;51.034;7.006;2023-05-16T06:48:41;14.40;99.90
10662;DHT22;5379;51.034;7.006;2023-05-16T06:51:08;14.30;99.90
10662;DHT22;5379;51.034;7.006;2023-05-16T06:53:35;13.90;99.90
10662;DHT22;5379;51.034;7.006;2023-05-16T06:56:02;14.20;99.90
10662;DHT22;5379;51.034;7.006;2023-05-16T06:58:30;14.20;99.90
10662;DHT22;5379;51.034;7.006;2023-05-16T07:00:57;14.00;99.90
10662;DHT22;5379;51.034;7.006;2023-05-16T07:03:24;13.90;99.90
10662;DHT22;5379;51.034;7.006;2023-05-16T07:05:52;13.70;99.90
10662;DHT22;5379;51.034;7.006;2023-05-16T07:08:19;13.80;99.90
10662;DHT22;5379;51.034;7.006;2023-05-16T07:10:46;13.70;99.90
10662;DHT22;5379;51.034;7.006;2023-05-16T07:13:13;13.50;99.90
10662;DHT22;5379;51.034;7.006;2023-05-16T07:15:40;13.60;99.90
10662;DHT22;5379;51.034;7.006;2023-05-16T07:18:07;13.70;99.90
10662;DHT22;5379;51.034;7.006;2023-05-16T07:20:34;13.50;99.90
10662;DHT22;5379;51.034;7.006;2023-05-16T07:23:02;13.50;99.90
10662;DHT22;5379;51.034;7.006;2023-05-16T07:25:29;13.70;99.90
10662;DHT22;5379;51.034;7.006;2023-05-16T07:27:56;14.00;99.90
10662;DHT22;5379;51.034;7.006;2023-05-16T07:30:24;14.40;99.90
10662;DHT22;5379;51.034;7.006;2023-05-16T07:32:51;14.60;99.90
10662;DHT22;5379;51.034;7.006;2023-05-16T07:35:18;14.80;99.90
10662;DHT22;5379;51.034;7.006;2023-05-16T07:37:45;14.60;99.90
10662;DHT22;5379;51.034;7.006;2023-05-16T07:40:14;14.80;99.90
10662;DHT22;5379;51.034;7.006;2023-05-16T07:42:42;14.90;99.90
10662;DHT22;5379;51.034;7.006;2023-05-16T07:45:10;14.90;99.90
10662;DHT22;5379;51.034;7.006;2023-05-16T07:47:36;14.70;99.50
10662;DHT22;5379;51.034;7.006;2023-05-16T07:50:04;14.30;99.60
10662;DHT22;5379;51.034;7.006;2023-05-16T07:52:31;14.10;99.40
10662;DHT22;5379;51.034;7.006;2023-05-16T07:54:58;14.30;99.50
10662;DHT22;5379;51.034;7.006;2023-05-16T07:57:27;14.30;99.90
10662;DHT22;5379;51.034;7.006;2023-05-16T07:59:55;14.40;99.90
10662;DHT22;5379;51.034;7.006;2023-05-16T08:02:22;14.60;99.90
10662;DHT22;5379;51.034;7.006;2023-05-16T08:04:50;14.00;98.80
10662;DHT22;5379;51.034;7.006;2023-05-16T08:07:17;14.00;99.90
10662;DHT22;5379;51.034;7.006;2023-05-16T08:09:45;13.90;99.90
10662;DHT22;5379;51.034;7.006;2023-05-16T08:12:12;13.90;99.90
10662;DHT22;5379;51.034;7.006;2023-05-16T08:14:40;14.10;99.90
10662;DHT22;5379;51.034;7.006;2023-05-16T08:17:07;14.10;99.90
10662;DHT22;5379;51.034;7.006;2023-05-16T08:19:34;14.80;98.80
10662;DHT22;5379;51.034;7.006;2023-05-16T08:22:01;15.10;98.00
10662;DHT22;5379;51.034;7.006;2023-05-16T08:24:28;14.70;97.80
10662;DHT22;5379;51.034;7.006;2023-05-16T08:26:55;14.70;98.40
10662;DHT22;5379;51.034;7.006;2023-05-16T08:29:22;14.80;99.90
10662;DHT22;5379;51.034;7.006;2023-05-16T08:31:51;14.70;97.80
10662;DHT22;5379;51.034;7.006;2023-05-16T08:34:18;14.60;97.40
10662;DHT22;5379;51.034;7.006;2023-05-16T08:36:45;15.10;96.80
10662;DHT22;5379;51.034;7.006;2023-05-16T08:39:13;15.00;96.60
10662;DHT22;5379;51.034;7.006;2023-05-16T08:41:40;15.00;96.20
10662;DHT22;5379;51.034;7.006;2023-05-16T08:44:07;15.30;96.60
10662;DHT22;5379;51.034;7.006;2023-05-16T08:46:36;15.30;95.80
10662;DHT22;5379;51.034;7.006;2023-05-16T08:49:04;14.60;96.60
10662;DHT22;5379;51.034;7.006;2023-05-16T08:51:33;14.80;96.80
10662;DHT22;5379;51.034;7.006;2023-05-16T08:54:03;15.10;97.00
10662;DHT22;5379;51.034;7.006;2023-05-16T08:56:33;15.90;99.60
10662;DHT22;5379;51.034;7.006;2023-05-16T08:59:01;16.10;96.80
10662;DHT22;5379;51.034;7.006;2023-05-16T09:01:29;16.60;95.50
10662;DHT22;5379;51.034;7.006;2023-05-16T09:03:57;16.20;96.00
10662;DHT22;5379;51.034;7.006;2023-05-16T09:06:26;15.40;96.20
10662;DHT22;5379;51.034;7.006;2023-05-16T09:08:53;15.40;96.60
10662;DHT22;5379;51.034;7.006;2023-05-16T09:11:20;15.10;96.30
10662;DHT22;5379;51.034;7.006;2023-05-16T09:13:47;15.30;96.70
10662;DHT22;5379;51.034;7.006;2023-05-16T09:16:16;15.80;97.60
10662;DHT22;5379;51.034;7.006;2023-05-16T09:18:44;15.90;95.30
10662;DHT22;5379;51.034;7.006;2023-05-16T09:21:12;15.90;96.00
10662;DHT22;5379;51.034;7.006;2023-05-16T09:23:43;16.50;95.90
10662;DHT22;5379;51.034;7.006;2023-05-16T09:26:11;16.40;95.70
10662;DHT22;5379;51.034;7.006;2023-05-16T09:28:38;16.70;95.70
10662;DHT22;5379;51.034;7.006;2023-05-16T09:31:19;16.60;93.90
10662;DHT22;5379;51.034;7.006;2023-05-16T09:33:47;16.70;95.80
10662;DHT22;5379;51.034;7.006;2023-05-16T09:36:15;17.80;96.70
10662;DHT22;5379;51.034;7.006;2023-05-16T09:38:43;18.30;95.70
10662;DHT22;5379;51.034;7.006;2023-05-16T09:41:11;18.20;97.70
10662;DHT22;5379;51.034;7.006;2023-05-16T09:43:40;18.40;95.30
10662;DHT22;5379;51.034;7.006;2023-05-16T09:46:07;18.40;94.70
10662;DHT22;5379;51.034;7.006;2023-05-16T09:48:35;18.70;96.20
10662;DHT22;5379;51.034;7.006;2023-05-16T09:51:04;18.70;96.10
10662;DHT22;5379;51.034;7.006;2023-05-16T09:53:32;17.70;96.90
10662;DHT22;5379;51.034;7.006;2023-05-16T09:56:02;17.30;93.50
10662;DHT22;5379;51.034;7.006;2023-05-16T09:58:30;17.20;93.70
10662;DHT22;5379;51.034;7.006;2023-05-16T10:00:58;17.20;94.00
10662;DHT22;5379;51.034;7.006;2023-05-16T10:03:25;16.50;94.90
10662;DHT22;5379;51.034;7.006;2023-05-16T10:05:53;16.00;94.50
10662;DHT22;5379;51.034;7.006;2023-05-16T10:08:21;15.50;95.40
10662;DHT22;5379;51.034;7.006;2023-05-16T10:10:50;16.70;96.20
10662;DHT22;5379;51.034;7.006;2023-05-16T10:13:20;17.30;94.90
10662;DHT22;5379;51.034;7.006;2023-05-16T10:15:48;17.90;97.40
10662;DHT22;5379;51.034;7.006;2023-05-16T10:18:17;17.80;93.40
10662;DHT22;5379;51.034;7.006;2023-05-16T10:20:46;17.10;92.80
10662;DHT22;5379;51.034;7.006;2023-05-16T10:23:17;16.90;93.40
10662;DHT22;5379;51.034;7.006;2023-05-16T10:25:46;17.90;94.50
10662;DHT22;5379;51.034;7.006;2023-05-16T10:28:14;17.50;93.50
10662;DHT22;5379;51.034;7.006;2023-05-16T10:30:44;16.80;92.20
10662;DHT22;5379;51.034;7.006;2023-05-16T10:33:12;16.90;93.10
10662;DHT22;5379;51.034;7.006;2023-05-16T10:35:40;17.00;93.00
10662;DHT22;5379;51.034;7.006;2023-05-16T10:38:10;16.50;92.60
10662;DHT22;5379;51.034;7.006;2023-05-16T10:40:39;16.60;93.10
10662;DHT22;5379;51.034;7.006;2023-05-16T10:43:07;16.70;92.10
10662;DHT22;5379;51.034;7.006;2023-05-16T10:45:36;16.50;93.30
10662;DHT22;5379;51.034;7.006;2023-05-16T10:48:09;16.70;93.10
10662;DHT22;5379;51.034;7.006;2023-05-16T10:50:38;17.80;97.40
10662;DHT22;5379;51.034;7.006;2023-05-16T10:53:17;17.90;92.50
10662;DHT22;5379;51.034;7.006;2023-05-16T10:56:08;18.20;98.50
10662;DHT22;5379;51.034;7.006;2023-05-16T10:58:42;18.90;91.70
10662;DHT22;5379;51.034;7.006;2023-05-16T11:01:18;19.50;97.60
10662;DHT22;5379;51.034;7.006;2023-05-16T11:04:07;19.90;92.70
10662;DHT22;5379;51.034;7.006;2023-05-16T11:06:43;19.00;90.90
10662;DHT22;5379;51.034;7.006;2023-05-16T11:09:19;17.80;91.40
10662;DHT22;5379;51.034;7.006;2023-05-16T11:11:52;17.90;92.20
10662;DHT22;5379;51.034;7.006;2023-05-16T11:14:22;17.60;92.00
10662;DHT22;5379;51.034;7.006;2023-05-16T11:16:50;17.80;92.60
10662;DHT22;5379;51.034;7.006;2023-05-16T11:19:38;18.20;92.20
10662;DHT22;5379;51.034;7.006;2023-05-16T11:22:20;18.60;92.30
10662;DHT22;5379;51.034;7.006;2023-05-16T11:24:55;18.70;93.20
10662;DHT22;5379;51.034;7.006;2023-05-16T11:27:25;19.10;93.20
10662;DHT22;5379;51.034;7.006;2023-05-16T11:29:53;18.30;90.80
10662;DHT22;5379;51.034;7.006;2023-05-16T11:32:21;18.60;94.10
10662;DHT22;5379;51.034;7.006;2023-05-16T11:34:50;19.00;90.80
10662;DHT22;5379;51.034;7.006;2023-05-16T11:37:18;19.00;91.50
10662;DHT22;5379;51.034;7.006;2023-05-16T11:39:46;18.60;91.30
10662;DHT22;5379;51.034;7.006;2023-05-16T11:42:13;17.30;92.30
10662;DHT22;5379;51.034;7.006;2023-05-16T11:44:40;17.10;93.10
10662;DHT22;5379;51.034;7.006;2023-05-16T11:47:07;17.10;93.20
10662;DHT22;5379;51.034;7.006;2023-05-16T11:49:34;17.00;94.00
10662;DHT22;5379;51.034;7.006;2023-05-16T11:52:03;17.10;94.10
10662;DHT22;5379;51.034;7.006;2023-05-16T11:54:31;17.30;95.10
10662;DHT22;5379;51.034;7.006;2023-05-16T11:56:59;18.70;97.20
10662;DHT22;5379;51.034;7.006;2023-05-16T11:59:26;19.60;94.10
10662;DHT22;5379;51.034;7.006;2023-05-16T12:01:54;19.50;93.50
10662;DHT22;5379;51.034;7.006;2023-05-16T12:04:21;19.00;91.80
10662;DHT22;5379;51.034;7.006;2023-05-16T12:07:00;18.90;93.60
10662;DHT22;5379;51.034;7.006;2023-05-16T12:09:29;19.50;92.70
10662;DHT22;5379;51.034;7.006;2023-05-16T12:11:56;18.70;91.60
10662;DHT22;5379;51.034;7.006;2023-05-16T12:14:23;18.30;91.90
10662;DHT22;5379;51.034;7.006;2023-05-16T12:16:51;17.80;93.10
10662;DHT22;5379;51.034;7.006;2023-05-16T12:19:19;18.00;94.80
10662;DHT22;5379;51.034;7.006;2023-05-16T12:21:47;18.80;93.80
10662;DHT22;5379;51.034;7.006;2023-05-16T12:24:14;18.70;92.50
10662;DHT22;5379;51.034;7.006;2023-05-16T12:26:43;18.40;91.90
10662;DHT22;5379;51.034;7.006;2023-05-16T12:29:10;18.90;95.80
10662;DHT22;5379;51.034;7.006;2023-05-16T12:31:38;19.50;94.90
10662;DHT22;5379;51.034;7.006;2023-05-16T12:34:14;19.60;95.10
10662;DHT22;5379;51.034;7.006;2023-05-16T12:36:42;20.20;92.70
10662;DHT22;5379;51.034;7.006;2023-05-16T12:39:11;19.50;90.70
10662;DHT22;5379;51.034;7.006;2023-05-16T12:41:40;19.30;91.70
10662;DHT22;5379;51.034;7.006;2023-05-16T12:44:13;18.60;92.00
10662;DHT22;5379;51.034;7.006;2023-05-16T12:46:43;18.90;92.40
10662;DHT22;5379;51.034;7.006;2023-05-16T12:49:10;18.80;94.90
10662;DHT22;5379;51.034;7.006;2023-05-16T12:51:38;18.80;95.20
10662;DHT22;5379;51.034;7.006;2023-05-16T12:54:09;19.10;93.80
10662;DHT22;5379;51.034;7.006;2023-05-16T12:56:37;19.10;93.50
10662;DHT22;5379;51.034;7.006;2023-05-16T12:59:04;18.10;93.80
10662;DHT22;5379;51.034;7.006;2023-05-16T13:01:33;18.00;94.10
10662;DHT22;5379;51.034;7.006;2023-05-16T13:04:00;17.30;94.20
10662;DHT22;5379;51.034;7.006;2023-05-16T13:06:27;17.30;94.60
10662;DHT22;5379;51.034;7.006;2023-05-16T13:08:54;17.20;94.90
10662;DHT22;5379;51.034;7.006;2023-05-16T13:11:23;17.00;95.40
10662;DHT22;5379;51.034;7.006;2023-05-16T13:13:50;16.80;96.00
10662;DHT22;5379;51.034;7.006;2023-05-16T13:16:18;16.90;96.00
10662;DHT22;5379;51.034;7.006;2023-05-16T13:18:46;18.20;99.50
10662;DHT22;5379;51.034;7.006;2023-05-16T13:21:13;19.20;95.50
10662;DHT22;5379;51.034;7.006;2023-05-16T13:23:40;18.70;91.30
10662;DHT22;5379;51.034;7.006;2023-05-16T13:26:07;18.70;94.70
10662;DHT22;5379;51.034;7.006;2023-05-16T13:28:34;19.00;94.60
10662;DHT22;5379;51.034;7.006;2023-05-16T13:31:02;19.70;93.50
10662;DHT22;5379;51.034;7.006;2023-05-16T13:33:29;19.20;90.50
10662;DHT22;5379;51.034;7.006;2023-05-16T13:35:57;19.90;97.80
10662;DHT22;5379;51.034;7.006;2023-05-16T13:38:24;20.40;97.10
10662;DHT22;5379;51.034;7.006;2023-05-16T13:40:51;20.70;93.30
10662;DHT22;5379;51.034;7.006;2023-05-16T13:43:18;20.70;96.30
10662;DHT22;5379;51.034;7.006;2023-05-16T13:45:45;20.40;91.20
10662;DHT22;5379;51.034;7.006;2023-05-16T13:48:12;20.70;93.10
10662;DHT22;5379;51.034;7.006;2023-05-16T13:50:39;21.00;91.30
10662;DHT22;5379;51.034;7.006;2023-05-16T13:53:08;21.00;93.40
10662;DHT22;5379;51.034;7.006;2023-05-16T13:55:35;20.10;86.70
10662;DHT22;5379;51.034;7.006;2023-05-16T13:58:02;19.90;88.40
10662;DHT22;5379;51.034;7.006;2023-05-16T14:00:29;18.40;84.90
10662;DHT22;5379;51.034;7.006;2023-05-16T14:02:56;18.40;85.80
10662;DHT22;5379;51.034;7.006;2023-05-16T14:05:23;18.60;87.60
10662;DHT22;5379;51.034;7.006;2023-05-16T14:07:50;18.40;85.10
10662;DHT22;5379;51.034;7.006;2023-05-16T14:10:19;18.60;85.40
10662;DHT22;5379;51.034;7.006;2023-05-16T14:12:46;19.10;84.70
10662;DHT22;5379;51.034;7.006;2023-05-16T14:15:13;18.90;85.60
10662;DHT22;5379;51.034;7.006;2023-05-16T14:17:40;19.50;89.20
10662;DHT22;5379;51.034;7.006;2023-05-16T14:20:08;19.30;93.30
10662;DHT22;5379;51.034;7.006;2023-05-16T14:22:35;19.30;84.90
10662;DHT22;5379;51.034;7.006;2023-05-16T14:25:03;19.90;90.70
10662;DHT22;5379;51.034;7.006;2023-05-16T14:27:32;20.20;87.00
10662;DHT22;5379;51.034;7.006;2023-05-16T14:29:59;19.70;85.90
10662;DHT22;5379;51.034;7.006;2023-05-16T14:32:26;20.50;93.90
10662;DHT22;5379;51.034;7.006;2023-05-16T14:34:53;19.70;85.00
10662;DHT22;5379;51.034;7.006;2023-05-16T14:37:20;19.10;86.70
10662;DHT22;5379;51.034;7.006;2023-05-16T14:39:47;19.10;86.90
10662;DHT22;5379;51.034;7.006;2023-05-16T14:42:15;18.90;87.00
10662;DHT22;5379;51.034;7.006;2023-05-16T14:44:44;19.00;88.00
10662;DHT22;5379;51.034;7.006;2023-05-16T14:47:11;19.10;88.00
10662;DHT22;5379;51.034;7.006;2023-05-16T14:49:39;18.90;88.00
10662;DHT22;5379;51.034;7.006;2023-05-16T14:52:06;18.40;90.00
10662;DHT22;5379;51.034;7.006;2023-05-16T14:54:33;18.40;90.00
10662;DHT22;5379;51.034;7.006;2023-05-16T14:57:01;17.80;89.60
10662;DHT22;5379;51.034;7.006;2023-05-16T14:59:29;17.60;92.00
10662;DHT22;5379;51.034;7.006;2023-05-16T15:01:58;17.70;90.90
10662;DHT22;5379;51.034;7.006;2023-05-16T15:04:26;17.60;90.80
10662;DHT22;5379;51.034;7.006;2023-05-16T15:06:53;17.60;91.10
10662;DHT22;5379;51.034;7.006;2023-05-16T15:09:20;17.80;91.00
10662;DHT22;5379;51.034;7.006;2023-05-16T15:11:47;18.20;90.10
10662;DHT22;5379;51.034;7.006;2023-05-16T15:14:14;18.30;90.50
10662;DHT22;5379;51.034;7.006;2023-05-16T15:16:41;18.20;90.20
10662;DHT22;5379;51.034;7.006;2023-05-16T15:19:10;18.70;91.40
10662;DHT22;5379;51.034;7.006;2023-05-16T15:21:37;19.20;90.10
10662;DHT22;5379;51.034;7.006;2023-05-16T15:24:04;19.10;91.00
10662;DHT22;5379;51.034;7.006;2023-05-16T15:26:32;19.00;89.70
10662;DHT22;5379;51.034;7.006;2023-05-16T15:29:00;18.40;89.50
10662;DHT22;5379;51.034;7.006;2023-05-16T15:31:26;17.70;90.20
10662;DHT22;5379;51.034;7.006;2023-05-16T15:33:56;17.60;90.20
10662;DHT22;5379;51.034;7.006;2023-05-16T15:36:24;19.00;95.10
10662;DHT22;5379;51.034;7.006;2023-05-16T15:38:51;19.20;94.80
10662;DHT22;5379;51.034;7.006;2023-05-16T15:41:19;19.50;92.50
10662;DHT22;5379;51.034;7.006;2023-05-16T15:43:46;18.70;89.90
10662;DHT22;5379;51.034;7.006;2023-05-16T15:46:14;18.60;90.20
10662;DHT22;5379;51.034;7.006;2023-05-16T15:48:41;18.50;90.10
10662;DHT22;5379;51.034;7.006;2023-05-16T15:51:10;18.60;91.90
10662;DHT22;5379;51.034;7.006;2023-05-16T15:53:38;18.80;90.00
10662;DHT22;5379;51.034;7.006;2023-05-16T15:56:06;19.40;90.20
10662;DHT22;5379;51.034;7.006;2023-05-16T15:58:33;20.00;93.50
10662;DHT22;5379;51.034;7.006;2023-05-16T16:01:01;20.40;91.30
10662;DHT22;5379;51.034;7.006;2023-05-16T16:03:28;19.80;89.00
10662;DHT22;5379;51.034;7.006;2023-05-16T16:05:55;19.00;91.00
10662;DHT22;5379;51.034;7.006;2023-05-16T16:08:22;18.20;90.70
10662;DHT22;5379;51.034;7.006;2023-05-16T16:10:51;18.30;92.10
10662;DHT22;5379;51.034;7.006;2023-05-16T16:13:17;18.40;90.70
10662;DHT22;5379;51.034;7.006;2023-05-16T16:15:45;18.10;90.30
10662;DHT22;5379;51.034;7.006;2023-05-16T16:18:13;17.80;90.40
10662;DHT22;5379;51.034;7.006;2023-05-16T16:20:40;18.10;90.10
10662;DHT22;5379;51.034;7.006;2023-05-16T16:23:07;18.00;90.70
10662;DHT22;5379;51.034;7.006;2023-05-16T16:25:34;17.80;90.80
10662;DHT22;5379;51.034;7.006;2023-05-16T16:28:03;17.60;91.30
10662;DHT22;5379;51.034;7.006;2023-05-16T16:30:31;18.10;93.30
10662;DHT22;5379;51.034;7.006;2023-05-16T16:32:58;18.00;91.00
10662;DHT22;5379;51.034;7.006;2023-05-16T16:35:25;18.50;93.00
10662;DHT22;5379;51.034;7.006;2023-05-16T16:37:52;18.40;91.60
10662;DHT22;5379;51.034;7.006;2023-05-16T16:40:19;18.30;91.20
10662;DHT22;5379;51.034;7.006;2023-05-16T16:42:46;18.30;91.80
10662;DHT22;5379;51.034;7.006;2023-05-16T16:45:14;18.30;91.00
10662;DHT22;5379;51.034;7.006;2023-05-16T16:47:41;18.80;92.30
10662;DHT22;5379;51.034;7.006;2023-05-16T16:50:09;18.50;95.00
10662;DHT22;5379;51.034;7.006;2023-05-16T16:52:37;18.00;92.00
10662;DHT22;5379;51.034;7.006;2023-05-16T16:55:04;17.70;92.40
10662;DHT22;5379;51.034;7.006;2023-05-16T16:57:32;17.60;92.70
10662;DHT22;5379;51.034;7.006;2023-05-16T16:59:59;17.70;92.50
10662;DHT22;5379;51.034;7.006;2023-05-16T17:02:27;18.00;94.40
10662;DHT22;5379;51.034;7.006;2023-05-16T17:04:54;18.20;92.50
10662;DHT22;5379;51.034;7.006;2023-05-16T17:07:21;18.30;92.20
10662;DHT22;5379;51.034;7.006;2023-05-16T17:09:48;17.30;92.90
10662;DHT22;5379;51.034;7.006;2023-05-16T17:12:15;17.10;93.70
10662;DHT22;5379;51.034;7.006;2023-05-16T17:14:45;17.50;95.80
10662;DHT22;5379;51.034;7.006;2023-05-16T17:17:13;17.50;95.10
10662;DHT22;5379;51.034;7.006;2023-05-16T17:19:41;17.30;93.70
10662;DHT22;5379;51.034;7.006;2023-05-16T17:22:08;17.60;93.70
10662;DHT22;5379;51.034;7.006;2023-05-16T17:24:35;17.30;93.00
10662;DHT22;5379;51.034;7.006;2023-05-16T17:27:02;17.20;93.10
10662;DHT22;5379;51.034;7.006;2023-05-16T17:29:29;18.00;92.80
10662;DHT22;5379;51.034;7.006;2023-05-16T17:31:56;17.60;93.00
10662;DHT22;5379;51.034;7.006;2023-05-16T17:34:23;17.50;93.10
10662;DHT22;5379;51.034;7.006;2023-05-16T17:36:51;17.20;93.40
10662;DHT22;5379;51.034;7.006;2023-05-16T17:39:18;16.80;93.20
10662;DHT22;5379;51.034;7.006;2023-05-16T17:41:46;17.00;94.00
10662;DHT22;5379;51.034;7.006;2023-05-16T17:44:13;17.10;92.80
10662;DHT22;5379;51.034;7.006;2023-05-16T17:46:40;16.90;92.80
10662;DHT22;5379;51.034;7.006;2023-05-16T17:49:07;17.00;93.70
10662;DHT22;5379;51.034;7.006;2023-05-16T17:51:45;16.90;93.60
10662;DHT22;5379;51.034;7.006;2023-05-16T17:54:13;17.40;93.70
10662;DHT22;5379;51.034;7.006;2023-05-16T17:56:41;17.40;93.60
10662;DHT22;5379;51.034;7.006;2023-05-16T17:59:09;17.60;93.40
10662;DHT22;5379;51.034;7.006;2023-05-16T18:01:36;17.30;93.50
10662;DHT22;5379;51.034;7.006;2023-05-16T18:04:03;17.00;94.20
10662;DHT22;5379;51.034;7.006;2023-05-16T18:06:31;17.20;94.10
10662;DHT22;5379;51.034;7.006;2023-05-16T18:08:58;17.20;94.10
10662;DHT22;5379;51.034;7.006;2023-05-16T18:11:26;17.40;96.40
10662;DHT22;5379;51.034;7.006;2023-05-16T18:13:53;17.60;93.50
10662;DHT22;5379;51.034;7.006;2023-05-16T18:16:20;17.50;93.80
10662;DHT22;5379;51.034;7.006;2023-05-16T18:18:47;17.10;94.40
10662;DHT22;5379;51.034;7.006;2023-05-16T18:21:15;17.10;94.10
10662;DHT22;5379;51.034;7.006;2023-05-16T18:23:42;16.80;94.60
10662;DHT22;5379;51.034;7.006;2023-05-16T18:26:09;16.70;94.40
10662;DHT22;5379;51.034;7.006;2023-05-16T18:28:37;16.60;95.20
10662;DHT22;5379;51.034;7.006;2023-05-16T18:31:04;16.70;94.80
10662;DHT22;5379;51.034;7.006;2023-05-16T18:33:33;16.80;95.40
10662;DHT22;5379;51.034;7.006;2023-05-16T18:36:00;17.10;94.60
10662;DHT22;5379;51.034;7.006;2023-05-16T18:38:27;17.10;94.70
10662;DHT22;5379;51.034;7.006;2023-05-16T18:40:54;17.20;94.70
10662;DHT22;5379;51.034;7.006;2023-05-16T18:43:21;17.20;94.70
10662;DHT22;5379;51.034;7.006;2023-05-16T18:45:49;17.20;94.90
10662;DHT22;5379;51.034;7.006;2023-05-16T18:48:16;16.90;95.10
10662;DHT22;5379;51.034;7.006;2023-05-16T18:50:43;17.20;95.60
10662;DHT22;5379;51.034;7.006;2023-05-16T18:53:10;17.50;94.70
10662;DHT22;5379;51.034;7.006;2023-05-16T18:55:37;17.40;94.90
10662;DHT22;5379;51.034;7.006;2023-05-16T18:58:04;17.10;95.10
10662;DHT22;5379;51.034;7.006;2023-05-16T19:00:31;17.00;95.20
10662;DHT22;5379;51.034;7.006;2023-05-16T19:03:00;16.90;95.50
10662;DHT22;5379;51.034;7.006;2023-05-16T19:05:27;17.00;95.60
10662;DHT22;5379;51.034;7.006;2023-05-16T19:07:54;17.20;95.80
10662;DHT22;5379;51.034;7.006;2023-05-16T19:10:21;17.20;95.60
10662;DHT22;5379;51.034;7.006;2023-05-16T19:12:49;17.40;95.40
10662;DHT22;5379;51.034;7.006;2023-05-16T19:15:16;17.50;95.10
10662;DHT22;5379;51.034;7.006;2023-05-16T19:17:43;17.30;95.60
10662;DHT22;5379;51.034;7.006;2023-05-16T19:20:12;17.40;95.50
10662;DHT22;5379;51.034;7.006;2023-05-16T19:22:39;17.30;95.50
10662;DHT22;5379;51.034;7.006;2023-05-16T19:25:06;17.10;95.30
10662;DHT22;5379;51.034;7.006;2023-05-16T19:27:33;16.90;96.10
10662;DHT22;5379;51.034;7.006;2023-05-16T19:30:01;16.80;96.20
10662;DHT22;5379;51.034;7.006;2023-05-16T19:32:28;16.90;96.20
10662;DHT22;5379;51.034;7.006;2023-05-16T19:34:55;16.90;95.80
10662;DHT22;5379;51.034;7.006;2023-05-16T19:37:23;16.90;96.20
10662;DHT22;5379;51.034;7.006;2023-05-16T19:39:50;16.90;96.00
10662;DHT22;5379;51.034;7.006;2023-05-16T19:42:17;16.70;96.20
10662;DHT22;5379;51.034;7.006;2023-05-16T19:44:44;16.70;96.20
10662;DHT22;5379;51.034;7.006;2023-05-16T19:47:11;16.60;96.50
10662;DHT22;5379;51.034;7.006;2023-05-16T19:49:38;16.50;96.60
10662;DHT22;5379;51.034;7.006;2023-05-16T19:52:05;16.50;96.40
10662;DHT22;5379;51.034;7.006;2023-05-16T19:54:35;16.70;96.80
10662;DHT22;5379;51.034;7.006;2023-05-16T19:57:02;16.60;96.60
10662;DHT22;5379;51.034;7.006;2023-05-16T19:59:28;17.00;96.30
10662;DHT22;5379;51.034;7.006;2023-05-16T20:01:56;16.90;96.30
10662;DHT22;5379;51.034;7.006;2023-05-16T20:04:23;16.90;96.00
10662;DHT22;5379;51.034;7.006;2023-05-16T20:06:51;16.70;96.40
10662;DHT22;5379;51.034;7.006;2023-05-16T20:09:17;16.70;96.50
10662;DHT22;5379;51.034;7.006;2023-05-16T20:11:46;16.70;96.60
10662;DHT22;5379;51.034;7.006;2023-05-16T20:14:13;16.70;96.60
10662;DHT22;5379;51.034;7.006;2023-05-16T20:16:40;16.90;96.50
10662;DHT22;5379;51.034;7.006;2023-05-16T20:19:07;16.70;96.70